Time;durP1;ratioP1;P1;durP2;ratioP2;P2;SDS_P1;SDS_P2;PMS_P1;PMS_P2;Temp;Humidity;BMP_temperature;BMP_pressure;BME280_temperature;BME280_humidity;BME280_pressure;Samples;Min_cycle;Max_cycle;Signal;HPM_P1;HPM_P2
2021/04/06 00:00:06;;;;;;;;;;;;;;;-2.29;100.00;95406.00;1035535;28;19913;-64
2021/04/06 00:00:38;;;;;;;;;;;;;;;-2.28;100.00;95414.50;1030874;28;19918;-66
2021/04/06 00:01:08;;;;;;;;;;;;;;;-2.28;100.00;95420.44;1030185;28;19914;-66
2021/04/06 00:01:48;;;;;;;;;;;;;;;-2.28;100.00;95412.75;1031359;28;19916;-65
2021/04/06 00:02:19;;;;;;;;;;;;;;;-2.29;100.00;95415.47;1031102;28;19937;-66
2021/04/06 00:02:50;;;;;;;;;;;;;;;-2.30;100.00;95412.13;1037222;28;19913;-65
2021/04/06 00:03:21;;;;;;;;;;;;;;;-2.29;100.00;95410.34;1039020;28;19913;-64
2021/04/06 00:03:52;;;;;;;;;;;;;;;-2.27;100.00;95414.31;1035666;28;20318;-66
2021/04/06 00:04:23;;;;;;;;;;;;;;;-2.25;100.00;95421.81;1039286;28;19913;-65
2021/04/06 00:04:54;;;;;;;;;;;;;;;-2.26;100.00;95415.09;1031428;28;19952;-65
2021/04/06 00:05:25;;;;;;;;;;;;;;;-2.28;100.00;95412.75;1031496;28;19920;-66
2021/04/06 00:05:57;;;;;;;;;;;;;;;-2.26;100.00;95420.25;1035173;28;19956;-65
2021/04/06 00:06:28;;;;;;;;;;;;;;;-2.25;100.00;95414.09;1031763;28;19917;-66
2021/04/06 00:06:59;;;;;;;;;;;;;;;-2.22;100.00;95411.16;1023852;28;20082;-68
2021/04/06 00:07:29;;;;;;;;;;;;;;;-2.22;100.00;95408.59;1023656;28;19914;-64
2021/04/06 00:08:00;;;;;;;;;;;;;;;-2.23;100.00;95417.28;1023614;28;20050;-66
2021/04/06 00:08:30;;;;;;;;;;;;;;;-2.23;100.00;95409.59;1027217;28;19913;-66
2021/04/06 00:09:01;;;;;;;;;;;;;;;-2.22;100.00;95411.94;1027877;28;20401;-64
2021/04/06 00:09:31;;;;;;;;;;;;;;;-2.23;100.00;95407.81;1032289;28;20023;-65
2021/04/06 00:10:22;;;;;;;;;;;;;;;-2.21;100.00;95405.06;1027483;28;19914;-66
2021/04/06 00:10:53;;;;;;;;;;;;;;;-2.21;100.00;95411.00;1027650;28;19917;-66
2021/04/06 00:11:23;;;;;;;;;;;;;;;-2.20;100.00;95407.44;1023969;28;19922;-66
2021/04/06 00:11:55;;;;;;;;;;;;;;;-2.19;100.00;95410.78;1026701;28;19909;-65
2021/04/06 00:12:25;;;;;;;;;;;;;;;-2.22;100.00;95409.38;1028243;28;19966;-66
2021/04/06 00:12:55;;;;;;;;;;;;;;;-2.22;100.00;95409.38;1031893;28;19908;-65
2021/04/06 00:13:27;;;;;;;;;;;;;;;-2.23;100.00;95405.22;1031166;28;19913;-65
2021/04/06 00:13:57;;;;;;;;;;;;;;;-2.22;100.00;95411.16;1031997;28;19905;-65
2021/04/06 00:14:28;;;;;;;;;;;;;;;-2.26;100.00;95408.19;1027779;28;19924;-63
2021/04/06 00:14:58;;;;;;;;;;;;;;;-2.26;100.00;95405.63;1023522;28;20344;-66
2021/04/06 00:15:29;;;;;;;;;;;;;;;-2.24;100.00;95408.81;1031768;28;19906;-63
2021/04/06 00:16:00;;;;;;;;;;;;;;;-2.23;100.00;95402.66;1027746;28;19906;-65
2021/04/06 00:16:31;;;;;;;;;;;;;;;-2.24;100.00;95403.66;1028577;28;19902;-66
2021/04/06 00:17:01;;;;;;;;;;;;;;;-2.20;100.00;95402.28;1024911;28;19997;-64
2021/04/06 00:17:32;;;;;;;;;;;;;;;-2.20;100.00;95404.06;1023615;28;19902;-65
2021/04/06 00:18:03;;;;;;;;;;;;;;;-2.24;100.00;95406.22;1024162;28;20029;-65
2021/04/06 00:18:33;;;;;;;;;;;;;;;-2.21;100.00;95403.28;1034917;28;20377;-65
2021/04/06 00:19:03;;;;;;;;;;;;;;;-2.22;100.00;95408.59;1036226;28;19902;-66
2021/04/06 00:19:34;;;;;;;;;;;;;;;-2.27;100.00;95404.03;1031833;28;19910;-67
2021/04/06 00:20:05;;;;;;;;;;;;;;;-2.27;100.00;95409.19;1035738;28;19912;-65
2021/04/06 00:20:36;;;;;;;;;;;;;;;-2.25;100.00;95404.63;1032155;28;19910;-65
2021/04/06 00:21:06;;;;;;;;;;;;;;;-2.25;100.00;95407.19;1028092;28;19902;-66
2021/04/06 00:21:36;;;;;;;;;;;;;;;-2.24;100.00;95408.81;1031473;28;19949;-66
2021/04/06 00:22:07;;;;;;;;;;;;;;;-2.25;100.00;95404.63;1032103;28;20441;-67
2021/04/06 00:22:37;;;;;;;;;;;;;;;-2.23;100.00;95402.66;1031835;28;20394;-65
2021/04/06 00:23:08;;;;;;;;;;;;;;;-2.20;100.00;95404.06;1032156;28;19959;-64
2021/04/06 00:23:38;;;;;;;;;;;;;;;-2.21;100.00;95408.41;1034802;28;20442;-65
2021/04/06 00:24:09;;;;;;;;;;;;;;;-2.25;100.00;95402.06;1035702;28;19912;-64
2021/04/06 00:24:40;;;;;;;;;;;;;;;-2.24;100.00;95408.00;1035946;28;19901;-65
2021/04/06 00:25:11;;;;;;;;;;;;;;;-2.25;100.00;95402.06;1033436;28;19912;-64
2021/04/06 00:25:42;;;;;;;;;;;;;;;-2.25;100.00;95407.19;1031771;28;19981;-66
2021/04/06 00:26:13;;;;;;;;;;;;;;;-2.29;100.00;95402.63;1032252;28;19910;-64
2021/04/06 00:26:47;;;;;;;;;;;;;;;-2.30;100.00;95408.75;1035133;28;19911;-65
2021/04/06 00:27:20;;;;;;;;;;;;;;;-2.29;100.00;95413.69;1036833;28;19909;-66
2021/04/06 00:27:51;;;;;;;;;;;;;;;-2.27;100.00;95398.91;1039741;28;19967;-65
2021/04/06 00:28:28;;;;;;;;;;;;;;;-2.26;100.00;95405.63;1039136;28;20381;-65
2021/04/06 00:28:58;;;;;;;;;;;;;;;-2.29;100.00;95403.41;1037353;28;19906;-63
2021/04/06 00:29:29;;;;;;;;;;;;;;;-2.26;100.00;95400.47;1035789;28;19906;-64
2021/04/06 00:30:04;;;;;;;;;;;;;;;-2.24;100.00;95401.09;1031778;28;20002;-65
2021/04/06 00:30:34;;;;;;;;;;;;;;;-2.26;100.00;95412.53;1027690;28;19902;-65
2021/04/06 00:31:04;;;;;;;;;;;;;;;-2.23;100.00;95399.31;1032314;28;19902;-65
2021/04/06 00:31:35;;;;;;;;;;;;;;;-2.23;100.00;95399.31;1028723;28;19910;-64
2021/04/06 00:32:05;;;;;;;;;;;;;;;-2.26;100.00;95405.63;1027215;28;19933;-66
2021/04/06 00:32:36;;;;;;;;;;;;;;;-2.27;100.00;95404.03;1031900;28;20000;-63
2021/04/06 00:33:17;;;;;;;;;;;;;;;-2.28;100.00;95402.47;1031757;28;19910;-66
2021/04/06 00:33:48;;;;;;;;;;;;;;;-2.30;100.00;95404.41;1035384;28;19909;-66
2021/04/06 00:34:18;;;;;;;;;;;;;;;-2.27;100.00;95398.13;1033423;28;20454;-65
2021/04/06 00:34:52;;;;;;;;;;;;;;;-2.27;100.00;95396.31;1030023;28;19913;-64
2021/04/06 00:35:24;;;;;;;;;;;;;;;-2.25;100.00;95401.25;1028461;28;20000;-67
2021/04/06 00:35:55;;;;;;;;;;;;;;;-2.23;100.00;95394.16;1031601;28;19917;-65
2021/04/06 00:36:26;;;;;;;;;;;;;;;-2.22;100.00;95396.53;1036364;28;20012;-66
2021/04/06 00:36:56;;;;;;;;;;;;;;;-2.22;100.00;95399.09;1034775;28;19913;-65
2021/04/06 00:37:26;;;;;;;;;;;;;;;-2.25;100.00;95396.91;1031716;28;19914;-65
2021/04/06 00:37:57;;;;;;;;;;;;;;;-2.21;100.00;95402.50;1027731;28;19921;-66
2021/04/06 00:38:29;;;;;;;;;;;;;;;-2.24;100.00;95402.88;1031188;28;20371;-66
2021/04/06 00:38:59;;;;;;;;;;;;;;;-2.23;100.00;95394.97;1035341;28;20438;-64
2021/04/06 00:39:31;;;;;;;;;;;;;;;-2.21;100.00;95395.56;1036288;28;19909;-64
2021/04/06 00:40:05;;;;;;;;;;;;;;;-2.25;100.00;95391.78;1035418;28;19965;-65
2021/04/06 00:40:37;;;;;;;;;;;;;;;-2.27;100.00;95395.53;1027515;28;19925;-65
2021/04/06 00:41:11;;;;;;;;;;;;;;;-2.25;100.00;95396.13;1028685;28;19937;-65
2021/04/06 00:41:41;;;;;;;;;;;;;;;-2.26;100.00;95390.19;1031626;28;19909;-66
2021/04/06 00:42:12;;;;;;;;;;;;;;;-2.26;100.00;95394.53;1035728;28;19909;-64
2021/04/06 00:42:42;;;;;;;;;;;;;;;-2.29;100.00;95388.00;1031574;28;20019;-65
2021/04/06 00:43:12;;;;;;;;;;;;;;;-2.30;100.00;95391.56;1031663;28;19927;-62
2021/04/06 00:43:43;;;;;;;;;;;;;;;-2.30;100.00;95401.06;1031771;28;20438;-64
2021/04/06 00:44:13;;;;;;;;;;;;;;;-2.31;100.00;95395.13;1027670;28;20421;-65
2021/04/06 00:44:46;;;;;;;;;;;;;;;-2.33;100.00;95393.72;1027513;28;19980;-63
2021/04/06 00:45:17;;;;;;;;;;;;;;;-2.32;100.00;95398.66;1032140;28;19905;-64
2021/04/06 00:45:47;;;;;;;;;;;;;;;-2.32;100.00;95393.53;1039450;28;19956;-66
2021/04/06 00:46:21;;;;;;;;;;;;;;;-2.33;100.00;95389.38;1039787;28;19905;-64
2021/04/06 00:46:51;;;;;;;;;;;;;;;-2.32;100.00;95390.97;1035866;28;20403;-64
2021/04/06 00:47:22;;;;;;;;;;;;;;;-2.30;100.00;95391.56;1035433;28;19913;-65
2021/04/06 00:47:59;;;;;;;;;;;;;;;-2.28;100.00;95386.22;1036093;28;19913;-66
2021/04/06 00:48:30;;;;;;;;;;;;;;;-2.28;100.00;95389.63;1035036;28;19910;-64
2021/04/06 00:49:00;;;;;;;;;;;;;;;-2.27;100.00;95388.63;1034722;28;19914;-65
2021/04/06 00:49:31;;;;;;;;;;;;;;;-2.26;100.00;95389.41;1031571;28;20311;-65
2021/04/06 00:50:03;;;;;;;;;;;;;;;-2.31;100.00;95384.84;1031806;28;19910;-65
2021/04/06 00:50:34;;;;;;;;;;;;;;;-2.33;100.00;95394.50;1026942;28;19906;-64
2021/04/06 00:51:04;;;;;;;;;;;;;;;-2.31;100.00;95392.56;1027902;28;19910;-64
2021/04/06 00:51:38;;;;;;;;;;;;;;;-2.30;100.00;95390.78;1023938;28;20013;-64
2021/04/06 00:52:09;;;;;;;;;;;;;;;-2.29;100.00;95392.34;1028277;28;19941;-64
2021/04/06 00:52:42;;;;;;;;;;;;;;;-2.27;100.00;95392.97;1035439;28;19972;-65
2021/04/06 00:53:12;;;;;;;;;;;;;;;-2.24;100.00;95397.72;1035669;28;19915;-65
2021/04/06 00:53:49;;;;;;;;;;;;;;;-2.31;100.00;95392.56;1036327;28;20378;-64
2021/04/06 00:54:21;;;;;;;;;;;;;;;-2.30;100.00;95391.56;1037078;28;19959;-63
2021/04/06 00:54:52;;;;;;;;;;;;;;;-2.28;100.00;95392.19;1031761;28;19909;-65
2021/04/06 00:55:22;;;;;;;;;;;;;;;-2.29;100.00;95395.72;1032748;28;19905;-64
2021/04/06 00:55:52;;;;;;;;;;;;;;;-2.28;100.00;95386.22;1038391;28;19912;-64
2021/04/06 00:56:24;;;;;;;;;;;;;;;-2.29;100.00;95385.44;1031713;28;20167;-64
2021/04/06 00:56:54;;;;;;;;;;;;;;;-2.29;100.00;95387.22;1031235;28;19912;-66
2021/04/06 00:57:28;;;;;;;;;;;;;;;-2.31;100.00;95386.59;1027496;28;19906;-64
2021/04/06 00:57:59;;;;;;;;;;;;;;;-2.29;100.00;95394.94;1028139;28;19952;-64
2021/04/06 00:58:29;;;;;;;;;;;;;;;-2.27;100.00;95398.91;1031379;28;20477;-66
2021/04/06 00:59:01;;;;;;;;;;;;;;;-2.28;100.00;95389.63;1031870;28;19902;-65
2021/04/06 00:59:32;;;;;;;;;;;;;;;-2.27;100.00;95398.91;1031301;28;20295;-66
2021/04/06 01:00:18;;;;;;;;;;;;;;;-2.26;100.00;95395.34;1033319;28;19906;-66
2021/04/06 01:00:49;;;;;;;;;;;;;;;-2.25;100.00;95396.13;1033483;28;19913;-65
2021/04/06 01:01:29;;;;;;;;;;;;;;;-2.28;100.00;95392.19;1023551;29;19929;-66
2021/04/06 01:02:00;;;;;;;;;;;;;;;-2.28;100.00;95394.75;1027534;28;19906;-66
2021/04/06 01:02:30;;;;;;;;;;;;;;;-2.28;100.00;95396.50;1030150;28;19948;-65
2021/04/06 01:03:00;;;;;;;;;;;;;;;-2.29;100.00;95390.56;1034529;28;19912;-65
2021/04/06 01:03:31;;;;;;;;;;;;;;;-2.36;100.00;95397.47;1035270;28;19905;-65
2021/04/06 01:04:03;;;;;;;;;;;;;;;-2.36;100.00;95397.47;1031643;28;19906;-67
2021/04/06 01:04:37;;;;;;;;;;;;;;;-2.38;100.00;95389.16;1032302;28;19913;-66
2021/04/06 01:05:07;;;;;;;;;;;;;;;-2.42;100.00;95391.28;1032167;28;19993;-63
2021/04/06 01:05:56;;;;;;;;;;;;;;;-2.42;100.00;95390.50;1036478;28;19909;-65
2021/04/06 01:06:26;;;;;;;;;;;;;;;-2.45;100.00;95399.41;1035536;28;19945;-65
2021/04/06 01:07:03;;;;;;;;;;;;;;;-2.46;100.00;95390.09;1034544;28;20380;-64
2021/04/06 01:07:34;;;;;;;;;;;;;;;-2.51;100.00;95399.38;1027575;28;19942;-63
2021/04/06 01:08:05;;;;;;;;;;;;;;;-2.53;100.00;95394.41;1026004;28;19907;-65
2021/04/06 01:08:36;;;;;;;;;;;;;;;-2.53;100.00;95388.47;1024223;28;19926;-64
2021/04/06 01:09:06;;;;;;;;;;;;;;;-2.56;100.00;95394.00;1027813;28;19906;-65
2021/04/06 01:09:37;;;;;;;;;;;;;;;-2.58;100.00;95393.38;1030302;28;20364;-65
2021/04/06 01:10:07;;;;;;;;;;;;;;;-2.62;100.00;95391.22;1035610;28;19995;-64
2021/04/06 01:10:38;;;;;;;;;;;;;;;-2.84;100.00;95361.44;1031640;28;19920;-64
2021/04/06 01:11:08;;;;;;;;;;;;;;;-2.64;100.00;95388.03;1035764;28;19920;-65
2021/04/06 01:11:38;;;;;;;;;;;;;;;-2.68;100.00;95386.84;1031106;28;19913;-64
2021/04/06 01:12:09;;;;;;;;;;;;;;;-2.71;100.00;95387.22;1031628;28;20382;-63
2021/04/06 01:12:40;;;;;;;;;;;;;;;-2.71;100.00;95389.78;1031885;28;20417;-63
2021/04/06 01:13:10;;;;;;;;;;;;;;;-2.72;100.00;95379.69;1031277;28;19917;-65
2021/04/06 01:13:40;;;;;;;;;;;;;;;-2.68;100.00;95386.03;1031842;28;20371;-63
2021/04/06 01:14:14;;;;;;;;;;;;;;;-2.72;100.00;95379.69;1035631;28;19943;-65
2021/04/06 01:14:45;;;;;;;;;;;;;;;-2.74;100.00;95385.00;1035908;28;19919;-64
2021/04/06 01:15:18;;;;;;;;;;;;;;;-2.76;100.00;95384.41;1035598;28;19932;-64
2021/04/06 01:15:48;;;;;;;;;;;;;;;-2.76;100.00;95384.41;1030691;28;20330;-64
2021/04/06 01:16:18;;;;;;;;;;;;;;;-2.75;100.00;95396.28;1025445;28;19910;-65
2021/04/06 01:16:49;;;;;;;;;;;;;;;-2.76;100.00;95384.41;1030308;28;19917;-66
2021/04/06 01:17:23;;;;;;;;;;;;;;;-2.78;100.00;95376.09;1031368;28;19914;-63
2021/04/06 01:17:53;;;;;;;;;;;;;;;-2.77;100.00;95380.25;1032080;28;19961;-65
2021/04/06 01:18:24;;;;;;;;;;;;;;;-2.79;100.00;95383.97;1030126;28;20458;-60
2021/04/06 01:18:54;;;;;;;;;;;;;;;-2.79;100.00;95384.75;1028067;28;20535;-63
2021/04/06 01:19:25;;;;;;;;;;;;;;;-2.79;100.00;95378.84;1023614;28;20018;-64
2021/04/06 01:19:58;;;;;;;;;;;;;;;-2.81;100.00;95381.63;1031283;28;19913;-65
2021/04/06 01:20:29;;;;;;;;;;;;;;;-2.83;100.00;95383.56;1035632;28;19944;-65
2021/04/06 01:21:05;;;;;;;;;;;;;;;-2.85;100.00;95376.06;1032540;28;20379;-65
2021/04/06 01:21:35;;;;;;;;;;;;;;;-2.86;100.00;95383.94;1034381;28;19921;-63
2021/04/06 01:22:06;;;;;;;;;;;;;;;-2.88;100.00;95383.34;1028686;28;19933;-65
2021/04/06 01:22:37;;;;;;;;;;;;;;;-2.90;100.00;95383.50;1032613;28;19978;-65
2021/04/06 01:23:10;;;;;;;;;;;;;;;-2.89;100.00;95379.97;1029372;28;20431;-65
2021/04/06 01:23:40;;;;;;;;;;;;;;;-2.89;100.00;95379.97;1034371;28;19920;-66
2021/04/06 01:24:11;;;;;;;;;;;;;;;-2.89;100.00;95384.31;1035455;28;19925;-66
2021/04/06 01:24:41;;;;;;;;;;;;;;;-2.90;100.00;95383.50;1033542;28;19910;-65
2021/04/06 01:25:19;;;;;;;;;;;;;;;-2.91;100.00;95379.38;1038909;28;19913;-63
2021/04/06 01:25:53;;;;;;;;;;;;;;;-2.92;100.00;95384.69;1031227;28;19921;-64
2021/04/06 01:26:24;;;;;;;;;;;;;;;-2.93;100.00;95383.09;1031459;28;20481;-65
2021/04/06 01:26:55;;;;;;;;;;;;;;;-2.95;100.00;95380.72;1024317;28;19965;-65
2021/04/06 01:27:25;;;;;;;;;;;;;;;-2.89;100.00;95384.31;1028525;28;19966;-65
2021/04/06 01:27:56;;;;;;;;;;;;;;;-2.93;100.00;95385.66;1031359;28;19996;-65
2021/04/06 01:28:27;;;;;;;;;;;;;;;-2.93;100.00;95380.53;1034363;28;19943;-65
2021/04/06 01:28:57;;;;;;;;;;;;;;;-2.96;100.00;95388.59;1035698;28;19972;-65
2021/04/06 01:29:28;;;;;;;;;;;;;;;-3.00;100.00;95393.31;1035469;28;19909;-64
2021/04/06 01:29:58;;;;;;;;;;;;;;;-3.02;100.00;95385.00;1031558;28;19910;-66
2021/04/06 01:30:43;;;;;;;;;;;;;;;-2.96;100.00;95381.69;1031224;28;19918;-64
2021/04/06 01:31:14;;;;;;;;;;;;;;;-2.96;100.00;95383.47;1031316;28;20287;-65
2021/04/06 01:31:44;;;;;;;;;;;;;;;-2.98;100.00;95382.88;1029652;28;19952;-63
2021/04/06 01:32:15;;;;;;;;;;;;;;;-2.99;100.00;95378.72;1027331;28;19998;-65
2021/04/06 01:32:45;;;;;;;;;;;;;;;-3.02;100.00;95390.13;1031585;28;19909;-66
2021/04/06 01:33:17;;;;;;;;;;;;;;;-2.99;100.00;95388.97;1033084;28;19914;-65
2021/04/06 01:33:47;;;;;;;;;;;;;;;-3.00;100.00;95387.41;1035342;28;20441;-65
2021/04/06 01:34:18;;;;;;;;;;;;;;;-3.02;100.00;95384.22;1039818;28;19917;-66
2021/04/06 01:34:48;;;;;;;;;;;;;;;-3.01;100.00;95376.34;1031282;28;19921;-63
2021/04/06 01:35:19;;;;;;;;;;;;;;;-3.00;100.00;95377.13;1023541;28;19917;-64
2021/04/06 01:35:51;;;;;;;;;;;;;;;-2.97;100.00;95381.91;1031018;28;19980;-65
2021/04/06 01:36:25;;;;;;;;;;;;;;;-2.96;100.00;95378.34;1027992;28;20667;-63
2021/04/06 01:36:55;;;;;;;;;;;;;;;-2.92;100.00;95376.97;1028031;28;20005;-63
2021/04/06 01:37:28;;;;;;;;;;;;;;;-2.91;100.00;95376.03;1031947;28;20532;-65
2021/04/06 01:37:59;;;;;;;;;;;;;;;-2.92;100.00;95379.53;1031360;28;19917;-65
2021/04/06 01:38:29;;;;;;;;;;;;;;;-2.92;100.00;95385.50;1033355;28;19976;-65
2021/04/06 01:39:00;;;;;;;;;;;;;;;-2.92;100.00;95382.09;1036661;28;19913;-64
2021/04/06 01:39:30;;;;;;;;;;;;;;;-2.96;100.00;95380.91;1035533;28;19929;-64
2021/04/06 01:40:02;;;;;;;;;;;;;;;-2.97;100.00;95376.75;1036700;28;20379;-65
2021/04/06 01:40:33;;;;;;;;;;;;;;;-2.96;100.00;95376.56;1035314;28;19913;-66
2021/04/06 01:41:04;;;;;;;;;;;;;;;-2.97;100.00;95379.31;1032468;28;19918;-65
2021/04/06 01:41:34;;;;;;;;;;;;;;;-2.98;100.00;95375.19;1023800;28;19941;-65
2021/04/06 01:42:05;;;;;;;;;;;;;;;-3.00;100.00;95372.78;1027204;28;19970;-65
2021/04/06 01:42:37;;;;;;;;;;;;;;;-3.00;100.00;95372.00;1023802;28;19918;-64
2021/04/06 01:43:07;;;;;;;;;;;;;;;-3.00;100.00;95374.56;1031402;28;20410;-63
2021/04/06 01:43:46;;;;;;;;;;;;;;;-3.01;100.00;95375.56;1030434;28;19953;-64
2021/04/06 01:44:16;;;;;;;;;;;;;;;-3.03;100.00;95377.50;1032530;28;19928;-63
2021/04/06 01:44:49;;;;;;;;;;;;;;;-3.04;100.00;95368.22;1035521;28;19918;-65
2021/04/06 01:45:20;;;;;;;;;;;;;;;-3.05;100.00;95376.88;1032859;28;20011;-63
2021/04/06 01:45:55;;;;;;;;;;;;;;;-3.08;100.00;95363.47;1032272;28;19916;-65
2021/04/06 01:46:36;;;;;;;;;;;;;;;-3.08;100.00;95366.03;1035727;28;20043;-65
2021/04/06 01:47:06;;;;;;;;;;;;;;;-3.10;100.00;95362.84;1031115;28;20008;-65
2021/04/06 01:47:37;;;;;;;;;;;;;;;-3.09;100.00;95372.13;1031589;28;20082;-65
2021/04/06 01:48:07;;;;;;;;;;;;;;;-3.10;100.00;95370.53;1033098;28;19983;-66
2021/04/06 01:48:38;;;;;;;;;;;;;;;-3.11;100.00;95366.41;1034702;28;20383;-63
2021/04/06 01:49:09;;;;;;;;;;;;;;;-3.13;100.00;95365.78;1035431;28;20310;-65
2021/04/06 01:49:40;;;;;;;;;;;;;;;-3.14;100.00;95365.97;1035074;28;19920;-64
2021/04/06 01:50:10;;;;;;;;;;;;;;;-3.15;100.00;95370.31;1031072;28;20346;-66
2021/04/06 01:50:47;;;;;;;;;;;;;;;-3.18;100.00;95365.56;1035949;28;19952;-65
2021/04/06 01:51:20;;;;;;;;;;;;;;;-3.19;100.00;95368.28;1034244;28;20365;-67
2021/04/06 01:51:53;;;;;;;;;;;;;;;-3.21;100.00;95368.50;1033854;28;19960;-67
2021/04/06 01:52:24;;;;;;;;;;;;;;;-3.23;100.00;95372.22;1037759;28;19948;-66
2021/04/06 01:52:54;;;;;;;;;;;;;;;-3.24;100.00;95366.31;1031517;28;19906;-65
2021/04/06 01:53:25;;;;;;;;;;;;;;;-3.25;100.00;95364.72;1024077;28;20457;-65
2021/04/06 01:53:55;;;;;;;;;;;;;;;-3.25;100.00;95367.28;1027507;28;20631;-65
2021/04/06 01:54:26;;;;;;;;;;;;;;;-3.27;100.00;95364.09;1030902;28;19906;-64
2021/04/06 01:55:07;;;;;;;;;;;;;;;-3.30;100.00;95367.03;1031877;28;19914;-65
2021/04/06 01:55:39;;;;;;;;;;;;;;;-3.33;100.00;95368.19;1032761;28;19913;-65
2021/04/06 01:56:13;;;;;;;;;;;;;;;-3.35;100.00;95359.13;1040922;28;19958;-64
2021/04/06 01:56:49;;;;;;;;;;;;;;;-3.37;100.00;95364.41;1039633;28;20575;-65
2021/04/06 01:57:27;;;;;;;;;;;;;;;-3.36;100.00;95362.63;1034180;28;19945;-66
2021/04/06 01:57:58;;;;;;;;;;;;;;;-3.39;100.00;95357.88;1029109;28;19960;-65
2021/04/06 01:58:30;;;;;;;;;;;;;;;-3.39;100.00;95355.31;1034649;28;20779;-66
2021/04/06 01:59:04;;;;;;;;;;;;;;;-3.41;100.00;95354.72;1037756;28;19910;-63
2021/04/06 01:59:38;;;;;;;;;;;;;;;-3.39;100.00;95365.56;1040486;28;19921;-64
2021/04/06 02:00:19;;;;;;;;;;;;;;;-3.37;100.00;95356.72;1038529;28;19981;-65
2021/04/06 02:01:12;;;;;;;;;;;;;;;-3.39;100.00;95357.88;1035225;28;19975;-65
2021/04/06 02:01:46;;;;;;;;;;;;;;;-3.44;100.00;95358.44;1035471;28;20400;-65
2021/04/06 02:02:16;;;;;;;;;;;;;;;-3.46;100.00;95347.56;1035329;28;19901;-65
2021/04/06 02:02:47;;;;;;;;;;;;;;;-3.50;100.00;95354.03;1034989;28;19920;-64
2021/04/06 02:03:17;;;;;;;;;;;;;;;-3.50;100.00;95351.47;1031253;28;19910;-64
2021/04/06 02:03:54;;;;;;;;;;;;;;;-3.49;100.00;95352.28;1035194;28;19906;-66
2021/04/06 02:04:25;;;;;;;;;;;;;;;-3.49;100.00;95349.72;1031455;28;19940;-64
2021/04/06 02:04:56;;;;;;;;;;;;;;;-3.48;100.00;95348.75;1031347;28;20639;-64
2021/04/06 02:05:26;;;;;;;;;;;;;;;-3.49;100.00;95347.16;1028241;28;20008;-64
2021/04/06 02:05:57;;;;;;;;;;;;;;;-3.44;100.00;95349.97;1026356;28;20218;-64
2021/04/06 02:06:28;;;;;;;;;;;;;;;-3.44;100.00;95347.41;1027447;28;19914;-64
2021/04/06 02:06:58;;;;;;;;;;;;;;;-3.38;100.00;95344.88;1023741;28;19993;-64
2021/04/06 02:07:36;;;;;;;;;;;;;;;-3.40;100.00;95346.03;1031401;28;20395;-65
2021/04/06 02:08:12;;;;;;;;;;;;;;;-3.39;100.00;95343.28;1031089;28;19956;-64
2021/04/06 02:08:49;;;;;;;;;;;;;;;-3.39;100.00;95347.63;1033046;28;19941;-64
2021/04/06 02:09:20;;;;;;;;;;;;;;;-3.35;100.00;95343.72;1037563;28;19968;-64
2021/04/06 02:09:50;;;;;;;;;;;;;;;-3.36;100.00;95342.13;1039530;28;20382;-64
2021/04/06 02:10:20;;;;;;;;;;;;;;;-3.39;100.00;95345.06;1029172;28;19909;-65
2021/04/06 02:10:51;;;;;;;;;;;;;;;-3.38;100.00;95344.88;1031361;28;20359;-65
2021/04/06 02:11:21;;;;;;;;;;;;;;;-3.38;100.00;95344.09;1035195;28;19921;-66
2021/04/06 02:11:52;;;;;;;;;;;;;;;-3.38;100.00;95344.09;1035481;28;20381;-66
2021/04/06 02:12:22;;;;;;;;;;;;;;;-3.39;100.00;95340.72;1035273;28;19917;-63
2021/04/06 02:12:52;;;;;;;;;;;;;;;-3.37;100.00;95340.53;1035198;28;19917;-64
2021/04/06 02:13:23;;;;;;;;;;;;;;;-3.38;100.00;95338.97;1031200;28;19953;-66
2021/04/06 02:14:02;;;;;;;;;;;;;;;-3.39;100.00;95348.41;1031577;28;19918;-64
2021/04/06 02:14:33;;;;;;;;;;;;;;;-3.38;100.00;95349.22;1036230;28;20526;-63
2021/04/06 02:15:03;;;;;;;;;;;;;;;-3.37;100.00;95343.09;1036641;28;19909;-64
2021/04/06 02:15:33;;;;;;;;;;;;;;;-3.38;100.00;95349.22;1035395;28;19909;-66
2021/04/06 02:16:04;;;;;;;;;;;;;;;-3.41;100.00;95347.03;1030919;28;19913;-63
2021/04/06 02:16:47;;;;;;;;;;;;;;;-3.37;100.00;95350.81;1030907;28;19918;-63
2021/04/06 02:17:18;;;;;;;;;;;;;;;-3.42;100.00;95353.13;1033047;28;20742;-66
2021/04/06 02:17:49;;;;;;;;;;;;;;;-3.41;100.00;95347.03;1035338;28;19913;-65
2021/04/06 02:18:26;;;;;;;;;;;;;;;-3.40;100.00;95356.28;1034644;28;20497;-66
2021/04/06 02:18:56;;;;;;;;;;;;;;;-3.39;100.00;95357.88;1028332;28;19917;-63
2021/04/06 02:19:26;;;;;;;;;;;;;;;-3.38;100.00;95352.56;1031420;28;19924;-63
2021/04/06 02:19:57;;;;;;;;;;;;;;;-3.40;100.00;95351.97;1028184;28;19914;-64
2021/04/06 02:20:27;;;;;;;;;;;;;;;-3.39;100.00;95350.19;1030770;28;20358;-65
2021/04/06 02:20:58;;;;;;;;;;;;;;;-3.36;100.00;95342.13;1027479;28;20551;-65
2021/04/06 02:21:29;;;;;;;;;;;;;;;-3.36;100.00;95344.69;1027184;28;20544;-60
2021/04/06 02:22:09;;;;;;;;;;;;;;;-3.37;100.00;95345.69;1031521;28;20001;-64
2021/04/06 02:22:39;;;;;;;;;;;;;;;-3.40;100.00;95346.81;1040847;28;19919;-64
2021/04/06 02:23:10;;;;;;;;;;;;;;;-3.42;100.00;95348.81;1043427;28;20371;-64
2021/04/06 02:23:43;;;;;;;;;;;;;;;-3.44;100.00;95344.84;1036360;28;19917;-64
2021/04/06 02:24:24;;;;;;;;;;;;;;;-3.44;100.00;95349.97;1038993;28;20473;-66
2021/04/06 02:24:54;;;;;;;;;;;;;;;-3.47;100.00;95356.25;1035378;28;19995;-63
2021/04/06 02:25:28;;;;;;;;;;;;;;;-3.46;100.00;95354.47;1032845;28;19910;-66
2021/04/06 02:25:58;;;;;;;;;;;;;;;-3.47;100.00;95358.03;1039449;28;19917;-63
2021/04/06 02:26:28;;;;;;;;;;;;;;;-3.46;100.00;95357.03;1034972;28;19924;-63
2021/04/06 02:26:59;;;;;;;;;;;;;;;-3.43;100.00;95351.53;1030771;28;19922;-63
2021/04/06 02:27:30;;;;;;;;;;;;;;;-3.44;100.00;95352.53;1027235;28;20336;-64
2021/04/06 02:28:00;;;;;;;;;;;;;;;-3.44;100.00;95349.97;1023257;28;19921;-66
2021/04/06 02:28:31;;;;;;;;;;;;;;;-3.45;100.00;95346.59;1030797;28;19976;-65
2021/04/06 02:29:01;;;;;;;;;;;;;;;-3.43;100.00;95351.53;1031284;28;20394;-64
2021/04/06 02:29:41;;;;;;;;;;;;;;;-3.47;100.00;95345.19;1035345;28;19928;-64
2021/04/06 02:30:12;;;;;;;;;;;;;;;-3.50;100.00;95350.69;1027498;28;19920;-64
2021/04/06 02:30:49;;;;;;;;;;;;;;;-3.49;100.00;95344.56;1032924;28;20411;-64
2021/04/06 02:31:20;;;;;;;;;;;;;;;-3.48;100.00;95343.63;1034842;28;19916;-63
2021/04/06 02:31:50;;;;;;;;;;;;;;;-3.47;100.00;95345.97;1032478;28;19944;-63
2021/04/06 02:32:21;;;;;;;;;;;;;;;-3.47;100.00;95350.31;1035069;28;19965;-62
2021/04/06 02:32:52;;;;;;;;;;;;;;;-3.49;100.00;95349.72;1031413;28;19936;-64
2021/04/06 02:33:29;;;;;;;;;;;;;;;-3.51;100.00;95342.22;1036732;28;19963;-63
2021/04/06 02:33:59;;;;;;;;;;;;;;;-3.46;100.00;95346.78;1037628;28;19916;-63
2021/04/06 02:34:33;;;;;;;;;;;;;;;-3.45;100.00;95348.38;1035512;28;19940;-65
2021/04/06 02:35:05;;;;;;;;;;;;;;;-3.49;100.00;95353.06;1030917;28;19910;-66
2021/04/06 02:35:35;;;;;;;;;;;;;;;-3.50;100.00;95346.34;1030995;28;19964;-66
2021/04/06 02:36:06;;;;;;;;;;;;;;;-3.49;100.00;95347.16;1035786;28;19937;-65
2021/04/06 02:36:36;;;;;;;;;;;;;;;-3.52;100.00;95347.50;1033392;28;19984;-66
2021/04/06 02:37:09;;;;;;;;;;;;;;;-3.54;100.00;95345.13;1035115;28;19916;-65
2021/04/06 02:37:43;;;;;;;;;;;;;;;-3.56;100.00;95347.88;1030585;28;19940;-65
2021/04/06 02:38:13;;;;;;;;;;;;;;;-3.55;100.00;95343.56;1031488;28;20345;-63
2021/04/06 02:38:44;;;;;;;;;;;;;;;-3.55;100.00;95346.13;1032161;28;19910;-65
2021/04/06 02:39:14;;;;;;;;;;;;;;;-3.57;100.00;95346.28;1035914;28;19921;-64
2021/04/06 02:39:45;;;;;;;;;;;;;;;-3.58;100.00;95346.50;1039490;28;20358;-65
2021/04/06 02:40:16;;;;;;;;;;;;;;;-3.57;100.00;95341.16;1035292;28;19916;-65
2021/04/06 02:40:46;;;;;;;;;;;;;;;-3.58;100.00;95339.59;1034837;28;20004;-62
2021/04/06 02:41:17;;;;;;;;;;;;;;;-3.58;100.00;95344.72;1035614;28;19909;-65
2021/04/06 02:41:47;;;;;;;;;;;;;;;-3.53;100.00;95346.72;1035098;28;19932;-66
2021/04/06 02:42:18;;;;;;;;;;;;;;;-3.56;100.00;95347.09;1034673;28;20013;-64
2021/04/06 02:42:49;;;;;;;;;;;;;;;-3.58;100.00;95349.06;1035575;28;20178;-64
2021/04/06 02:43:19;;;;;;;;;;;;;;;-3.60;100.00;95345.88;1039169;28;19913;-66
2021/04/06 02:43:50;;;;;;;;;;;;;;;-3.60;100.00;95346.66;1039395;28;19912;-66